sensor_id;sensor_type;location;lat;lon;timestamp;P1;durP1;ratioP1;P2;durP2;ratioP2
70301;SDS011;57706;56.326;43.882;2022-12-07T00:01:39;5.97;;;3.47;;
70301;SDS011;57706;56.326;43.882;2022-12-07T00:04:07;8.25;;;3.78;;
70301;SDS011;57706;56.326;43.882;2022-12-07T00:06:36;7.93;;;3.70;;
70301;SDS011;57706;56.326;43.882;2022-12-07T00:09:07;5.25;;;2.70;;
70301;SDS011;57706;56.326;43.882;2022-12-07T00:11:54;5.85;;;3.13;;
70301;SDS011;57706;56.326;43.882;2022-12-07T00:14:20;5.97;;;3.40;;
70301;SDS011;57706;56.326;43.882;2022-12-07T00:16:46;6.05;;;3.20;;
70301;SDS011;57706;56.326;43.882;2022-12-07T00:19:15;9.45;;;3.78;;
70301;SDS011;57706;56.326;43.882;2022-12-07T00:21:42;6.70;;;3.30;;
70301;SDS011;57706;56.326;43.882;2022-12-07T00:24:08;5.43;;;2.83;;
70301;SDS011;57706;56.326;43.882;2022-12-07T00:26:36;7.72;;;3.75;;
70301;SDS011;57706;56.326;43.882;2022-12-07T00:29:06;5.57;;;3.42;;
70301;SDS011;57706;56.326;43.882;2022-12-07T00:31:35;8.93;;;3.38;;
70301;SDS011;57706;56.326;43.882;2022-12-07T00:34:05;7.93;;;3.22;;
70301;SDS011;57706;56.326;43.882;2022-12-07T00:36:32;9.10;;;3.45;;
70301;SDS011;57706;56.326;43.882;2022-12-07T00:38:58;10.02;;;4.70;;
70301;SDS011;57706;56.326;43.882;2022-12-07T00:41:26;8.35;;;3.00;;
70301;SDS011;57706;56.326;43.882;2022-12-07T00:43:53;6.75;;;2.97;;
70301;SDS011;57706;56.326;43.882;2022-12-07T00:46:20;8.10;;;3.55;;
70301;SDS011;57706;56.326;43.882;2022-12-07T00:48:46;8.85;;;3.88;;
70301;SDS011;57706;56.326;43.882;2022-12-07T00:51:13;6.10;;;3.13;;
70301;SDS011;57706;56.326;43.882;2022-12-07T00:53:40;9.02;;;4.00;;
70301;SDS011;57706;56.326;43.882;2022-12-07T00:56:26;4.22;;;3.00;;
70301;SDS011;57706;56.326;43.882;2022-12-07T00:58:57;9.95;;;4.13;;
70301;SDS011;57706;56.326;43.882;2022-12-07T01:01:25;7.55;;;3.92;;
70301;SDS011;57706;56.326;43.882;2022-12-07T01:03:52;7.25;;;3.53;;
70301;SDS011;57706;56.326;43.882;2022-12-07T01:06:19;6.68;;;3.60;;
70301;SDS011;57706;56.326;43.882;2022-12-07T01:08:46;7.32;;;3.72;;
70301;SDS011;57706;56.326;43.882;2022-12-07T01:11:13;11.80;;;4.82;;
70301;SDS011;57706;56.326;43.882;2022-12-07T01:13:41;10.15;;;3.70;;
70301;SDS011;57706;56.326;43.882;2022-12-07T01:16:08;7.13;;;3.35;;
70301;SDS011;57706;56.326;43.882;2022-12-07T01:18:37;5.32;;;3.20;;
70301;SDS011;57706;56.326;43.882;2022-12-07T01:21:07;8.70;;;3.60;;
70301;SDS011;57706;56.326;43.882;2022-12-07T01:23:36;7.95;;;3.67;;
70301;SDS011;57706;56.326;43.882;2022-12-07T01:26:03;9.90;;;4.70;;
70301;SDS011;57706;56.326;43.882;2022-12-07T01:28:31;6.35;;;3.63;;
70301;SDS011;57706;56.326;43.882;2022-12-07T01:31:01;8.63;;;4.22;;
70301;SDS011;57706;56.326;43.882;2022-12-07T01:33:30;7.05;;;3.83;;
70301;SDS011;57706;56.326;43.882;2022-12-07T01:36:02;5.57;;;2.88;;
70301;SDS011;57706;56.326;43.882;2022-12-07T01:38:30;8.18;;;4.38;;
70301;SDS011;57706;56.326;43.882;2022-12-07T01:40:56;12.00;;;3.63;;
70301;SDS011;57706;56.326;43.882;2022-12-07T01:43:24;8.68;;;3.78;;
70301;SDS011;57706;56.326;43.882;2022-12-07T01:45:52;7.53;;;3.25;;
70301;SDS011;57706;56.326;43.882;2022-12-07T01:48:19;7.18;;;3.42;;
70301;SDS011;57706;56.326;43.882;2022-12-07T01:50:50;8.73;;;4.07;;
70301;SDS011;57706;56.326;43.882;2022-12-07T01:53:18;8.90;;;3.72;;
70301;SDS011;57706;56.326;43.882;2022-12-07T01:55:45;12.43;;;4.78;;
70301;SDS011;57706;56.326;43.882;2022-12-07T01:58:15;11.80;;;4.88;;
70301;SDS011;57706;56.326;43.882;2022-12-07T02:00:41;7.82;;;4.35;;
70301;SDS011;57706;56.326;43.882;2022-12-07T02:03:11;9.95;;;4.35;;
70301;SDS011;57706;56.326;43.882;2022-12-07T02:05:43;9.80;;;4.50;;
70301;SDS011;57706;56.326;43.882;2022-12-07T02:10:36;7.65;;;3.85;;
70301;SDS011;57706;56.326;43.882;2022-12-07T02:13:21;9.25;;;3.88;;
70301;SDS011;57706;56.326;43.882;2022-12-07T02:21:47;9.70;;;5.03;;
70301;SDS011;57706;56.326;43.882;2022-12-07T02:27:43;10.20;;;4.35;;
70301;SDS011;57706;56.326;43.882;2022-12-07T02:30:17;7.10;;;3.90;;
70301;SDS011;57706;56.326;43.882;2022-12-07T02:41:01;4.80;;;3.05;;
70301;SDS011;57706;56.326;43.882;2022-12-07T02:43:43;8.10;;;3.30;;
70301;SDS011;57706;56.326;43.882;2022-12-07T02:46:23;6.20;;;3.25;;
70301;SDS011;57706;56.326;43.882;2022-12-07T02:48:54;7.53;;;3.95;;
70301;SDS011;57706;56.326;43.882;2022-12-07T02:51:21;6.47;;;3.28;;
70301;SDS011;57706;56.326;43.882;2022-12-07T02:53:47;10.00;;;4.25;;
70301;SDS011;57706;56.326;43.882;2022-12-07T02:56:26;5.30;;;3.13;;
70301;SDS011;57706;56.326;43.882;2022-12-07T03:01:36;11.20;;;4.63;;
70301;SDS011;57706;56.326;43.882;2022-12-07T03:06:58;4.20;;;2.63;;
70301;SDS011;57706;56.326;43.882;2022-12-07T03:09:36;8.18;;;3.60;;
70301;SDS011;57706;56.326;43.882;2022-12-07T03:12:12;7.70;;;3.83;;
70301;SDS011;57706;56.326;43.882;2022-12-07T03:14:47;7.47;;;3.50;;
70301;SDS011;57706;56.326;43.882;2022-12-07T03:17:20;6.85;;;3.15;;
70301;SDS011;57706;56.326;43.882;2022-12-07T03:19:54;9.70;;;3.92;;
70301;SDS011;57706;56.326;43.882;2022-12-07T03:22:24;6.68;;;3.75;;
70301;SDS011;57706;56.326;43.882;2022-12-07T03:27:30;7.38;;;3.42;;
70301;SDS011;57706;56.326;43.882;2022-12-07T03:30:00;5.72;;;3.28;;
70301;SDS011;57706;56.326;43.882;2022-12-07T03:32:33;8.57;;;3.58;;
70301;SDS011;57706;56.326;43.882;2022-12-07T03:37:51;5.10;;;2.65;;
70301;SDS011;57706;56.326;43.882;2022-12-07T03:40:37;9.98;;;4.40;;
70301;SDS011;57706;56.326;43.882;2022-12-07T03:43:09;10.35;;;4.10;;
70301;SDS011;57706;56.326;43.882;2022-12-07T03:45:39;8.48;;;3.83;;
70301;SDS011;57706;56.326;43.882;2022-12-07T03:51:13;8.60;;;4.38;;
70301;SDS011;57706;56.326;43.882;2022-12-07T03:56:22;8.68;;;3.60;;
70301;SDS011;57706;56.326;43.882;2022-12-07T03:58:49;6.65;;;3.65;;
70301;SDS011;57706;56.326;43.882;2022-12-07T04:01:15;7.68;;;3.63;;
70301;SDS011;57706;56.326;43.882;2022-12-07T04:03:40;5.20;;;2.60;;
70301;SDS011;57706;56.326;43.882;2022-12-07T04:06:06;7.22;;;3.95;;
70301;SDS011;57706;56.326;43.882;2022-12-07T04:08:32;8.80;;;3.90;;
70301;SDS011;57706;56.326;43.882;2022-12-07T04:10:58;8.35;;;3.70;;
70301;SDS011;57706;56.326;43.882;2022-12-07T04:13:23;8.13;;;2.97;;
70301;SDS011;57706;56.326;43.882;2022-12-07T04:15:49;11.50;;;4.70;;
70301;SDS011;57706;56.326;43.882;2022-12-07T04:18:15;10.88;;;4.25;;
70301;SDS011;57706;56.326;43.882;2022-12-07T04:20:41;7.55;;;3.55;;
70301;SDS011;57706;56.326;43.882;2022-12-07T04:23:06;10.25;;;2.95;;
70301;SDS011;57706;56.326;43.882;2022-12-07T04:25:32;10.30;;;4.03;;
70301;SDS011;57706;56.326;43.882;2022-12-07T04:27:58;9.88;;;3.70;;
70301;SDS011;57706;56.326;43.882;2022-12-07T04:30:24;10.98;;;4.95;;
70301;SDS011;57706;56.326;43.882;2022-12-07T04:32:50;9.95;;;4.43;;
70301;SDS011;57706;56.326;43.882;2022-12-07T04:35:15;8.23;;;3.40;;
70301;SDS011;57706;56.326;43.882;2022-12-07T04:37:41;11.77;;;5.38;;
70301;SDS011;57706;56.326;43.882;2022-12-07T04:40:08;9.88;;;3.97;;
70301;SDS011;57706;56.326;43.882;2022-12-07T04:42:36;13.38;;;4.50;;
70301;SDS011;57706;56.326;43.882;2022-12-07T04:45:02;8.07;;;3.60;;
70301;SDS011;57706;56.326;43.882;2022-12-07T04:47:29;9.10;;;5.13;;
70301;SDS011;57706;56.326;43.882;2022-12-07T04:49:55;14.13;;;4.28;;
70301;SDS011;57706;56.326;43.882;2022-12-07T04:52:20;12.43;;;4.95;;
70301;SDS011;57706;56.326;43.882;2022-12-07T04:54:46;10.90;;;4.43;;
70301;SDS011;57706;56.326;43.882;2022-12-07T04:57:12;14.20;;;5.47;;
70301;SDS011;57706;56.326;43.882;2022-12-07T04:59:38;13.45;;;5.90;;
70301;SDS011;57706;56.326;43.882;2022-12-07T05:02:03;12.73;;;4.93;;
70301;SDS011;57706;56.326;43.882;2022-12-07T05:04:29;12.18;;;5.38;;
70301;SDS011;57706;56.326;43.882;2022-12-07T05:06:55;12.23;;;5.00;;
70301;SDS011;57706;56.326;43.882;2022-12-07T05:09:39;14.80;;;6.35;;
70301;SDS011;57706;56.326;43.882;2022-12-07T05:12:05;13.00;;;4.65;;
70301;SDS011;57706;56.326;43.882;2022-12-07T05:14:30;15.15;;;6.00;;
70301;SDS011;57706;56.326;43.882;2022-12-07T05:16:56;11.95;;;5.03;;
70301;SDS011;57706;56.326;43.882;2022-12-07T05:19:22;12.52;;;4.50;;
70301;SDS011;57706;56.326;43.882;2022-12-07T05:21:48;9.13;;;4.88;;
70301;SDS011;57706;56.326;43.882;2022-12-07T05:24:14;9.35;;;4.20;;
70301;SDS011;57706;56.326;43.882;2022-12-07T05:26:41;12.43;;;4.90;;
70301;SDS011;57706;56.326;43.882;2022-12-07T05:29:09;8.27;;;4.13;;
70301;SDS011;57706;56.326;43.882;2022-12-07T05:31:40;10.70;;;4.43;;
70301;SDS011;57706;56.326;43.882;2022-12-07T05:34:06;16.75;;;6.05;;
70301;SDS011;57706;56.326;43.882;2022-12-07T05:36:32;10.23;;;5.10;;
70301;SDS011;57706;56.326;43.882;2022-12-07T05:38:58;14.52;;;6.53;;
70301;SDS011;57706;56.326;43.882;2022-12-07T05:41:25;10.68;;;5.25;;
70301;SDS011;57706;56.326;43.882;2022-12-07T05:44:09;10.20;;;4.90;;
70301;SDS011;57706;56.326;43.882;2022-12-07T05:46:35;9.40;;;5.38;;
70301;SDS011;57706;56.326;43.882;2022-12-07T05:49:01;9.43;;;4.38;;
70301;SDS011;57706;56.326;43.882;2022-12-07T05:51:27;19.05;;;7.05;;
70301;SDS011;57706;56.326;43.882;2022-12-07T05:56:19;12.98;;;5.82;;
70301;SDS011;57706;56.326;43.882;2022-12-07T05:58:44;17.20;;;6.88;;
70301;SDS011;57706;56.326;43.882;2022-12-07T06:01:29;16.25;;;5.47;;
70301;SDS011;57706;56.326;43.882;2022-12-07T06:03:55;13.80;;;6.88;;
70301;SDS011;57706;56.326;43.882;2022-12-07T06:06:20;10.02;;;5.38;;
70301;SDS011;57706;56.326;43.882;2022-12-07T06:08:46;20.67;;;8.18;;
70301;SDS011;57706;56.326;43.882;2022-12-07T06:11:12;20.85;;;9.23;;
70301;SDS011;57706;56.326;43.882;2022-12-07T06:13:56;17.77;;;7.63;;
70301;SDS011;57706;56.326;43.882;2022-12-07T06:16:22;15.27;;;5.90;;
70301;SDS011;57706;56.326;43.882;2022-12-07T06:18:48;18.67;;;7.80;;
70301;SDS011;57706;56.326;43.882;2022-12-07T06:21:14;19.45;;;8.40;;
70301;SDS011;57706;56.326;43.882;2022-12-07T06:23:40;17.05;;;7.15;;
70301;SDS011;57706;56.326;43.882;2022-12-07T06:26:06;19.08;;;7.18;;
70301;SDS011;57706;56.326;43.882;2022-12-07T06:28:31;12.10;;;5.60;;
70301;SDS011;57706;56.326;43.882;2022-12-07T06:30:58;21.73;;;8.05;;
70301;SDS011;57706;56.326;43.882;2022-12-07T06:33:26;15.18;;;6.97;;
70301;SDS011;57706;56.326;43.882;2022-12-07T06:35:52;20.10;;;7.25;;
70301;SDS011;57706;56.326;43.882;2022-12-07T06:38:17;23.70;;;9.40;;
70301;SDS011;57706;56.326;43.882;2022-12-07T06:40:43;17.15;;;7.78;;
70301;SDS011;57706;56.326;43.882;2022-12-07T06:45:35;16.20;;;6.97;;
70301;SDS011;57706;56.326;43.882;2022-12-07T06:50:26;20.55;;;7.10;;
70301;SDS011;57706;56.326;43.882;2022-12-07T06:55:17;22.42;;;7.88;;
70301;SDS011;57706;56.326;43.882;2022-12-07T06:57:44;17.67;;;7.50;;
70301;SDS011;57706;56.326;43.882;2022-12-07T07:00:09;18.90;;;7.28;;
70301;SDS011;57706;56.326;43.882;2022-12-07T07:02:36;19.83;;;7.30;;
70301;SDS011;57706;56.326;43.882;2022-12-07T07:07:28;13.77;;;6.57;;
70301;SDS011;57706;56.326;43.882;2022-12-07T07:12:19;19.45;;;8.05;;
70301;SDS011;57706;56.326;43.882;2022-12-07T07:14:45;19.42;;;8.63;;
70301;SDS011;57706;56.326;43.882;2022-12-07T07:19:36;13.73;;;6.05;;
70301;SDS011;57706;56.326;43.882;2022-12-07T07:22:03;21.55;;;8.68;;
70301;SDS011;57706;56.326;43.882;2022-12-07T07:26:54;17.13;;;7.32;;
70301;SDS011;57706;56.326;43.882;2022-12-07T07:31:46;24.10;;;7.38;;
70301;SDS011;57706;56.326;43.882;2022-12-07T07:36:37;12.57;;;6.07;;
70301;SDS011;57706;56.326;43.882;2022-12-07T07:41:28;15.30;;;7.28;;
70301;SDS011;57706;56.326;43.882;2022-12-07T07:43:54;11.88;;;6.15;;
70301;SDS011;57706;56.326;43.882;2022-12-07T07:46:20;23.27;;;8.75;;
70301;SDS011;57706;56.326;43.882;2022-12-07T07:48:46;19.50;;;7.57;;
70301;SDS011;57706;56.326;43.882;2022-12-07T07:51:11;22.48;;;7.60;;
70301;SDS011;57706;56.326;43.882;2022-12-07T07:56:03;22.45;;;9.38;;
70301;SDS011;57706;56.326;43.882;2022-12-07T08:00:54;15.18;;;6.38;;
70301;SDS011;57706;56.326;43.882;2022-12-07T08:08:30;14.70;;;6.72;;
70301;SDS011;57706;56.326;43.882;2022-12-07T08:10:57;16.42;;;7.22;;
70301;SDS011;57706;56.326;43.882;2022-12-07T08:13:25;16.58;;;7.75;;
70301;SDS011;57706;56.326;43.882;2022-12-07T08:15:51;20.02;;;8.65;;
70301;SDS011;57706;56.326;43.882;2022-12-07T08:18:18;14.38;;;7.03;;
70301;SDS011;57706;56.326;43.882;2022-12-07T08:20:43;18.42;;;9.32;;
70301;SDS011;57706;56.326;43.882;2022-12-07T08:23:10;18.60;;;8.43;;
70301;SDS011;57706;56.326;43.882;2022-12-07T08:25:36;15.85;;;7.68;;
70301;SDS011;57706;56.326;43.882;2022-12-07T08:28:02;16.00;;;8.00;;
70301;SDS011;57706;56.326;43.882;2022-12-07T08:30:28;19.27;;;7.15;;
70301;SDS011;57706;56.326;43.882;2022-12-07T08:32:55;14.93;;;7.43;;
70301;SDS011;57706;56.326;43.882;2022-12-07T08:35:21;14.35;;;6.93;;
70301;SDS011;57706;56.326;43.882;2022-12-07T08:37:48;21.98;;;8.90;;
70301;SDS011;57706;56.326;43.882;2022-12-07T08:40:13;17.98;;;7.53;;
70301;SDS011;57706;56.326;43.882;2022-12-07T08:42:52;19.13;;;8.07;;
70301;SDS011;57706;56.326;43.882;2022-12-07T08:45:20;18.33;;;8.07;;
70301;SDS011;57706;56.326;43.882;2022-12-07T08:47:48;16.25;;;8.98;;
70301;SDS011;57706;56.326;43.882;2022-12-07T08:50:47;18.15;;;8.80;;
70301;SDS011;57706;56.326;43.882;2022-12-07T08:53:13;18.92;;;9.25;;
70301;SDS011;57706;56.326;43.882;2022-12-07T08:55:39;15.98;;;8.23;;
70301;SDS011;57706;56.326;43.882;2022-12-07T08:58:05;19.35;;;8.88;;
70301;SDS011;57706;56.326;43.882;2022-12-07T09:00:31;20.38;;;8.43;;
70301;SDS011;57706;56.326;43.882;2022-12-07T09:02:57;13.88;;;7.32;;
70301;SDS011;57706;56.326;43.882;2022-12-07T09:05:22;17.25;;;7.68;;
70301;SDS011;57706;56.326;43.882;2022-12-07T09:07:49;16.90;;;8.70;;
70301;SDS011;57706;56.326;43.882;2022-12-07T09:10:17;15.88;;;7.75;;
70301;SDS011;57706;56.326;43.882;2022-12-07T09:12:43;19.02;;;7.93;;
70301;SDS011;57706;56.326;43.882;2022-12-07T09:15:09;18.38;;;8.73;;
70301;SDS011;57706;56.326;43.882;2022-12-07T09:17:35;18.17;;;8.20;;
70301;SDS011;57706;56.326;43.882;2022-12-07T09:20:01;13.00;;;6.65;;
70301;SDS011;57706;56.326;43.882;2022-12-07T09:22:32;12.95;;;6.38;;
70301;SDS011;57706;56.326;43.882;2022-12-07T09:24:58;17.60;;;8.63;;
70301;SDS011;57706;56.326;43.882;2022-12-07T09:27:25;17.85;;;8.05;;
70301;SDS011;57706;56.326;43.882;2022-12-07T09:29:50;16.98;;;7.90;;
70301;SDS011;57706;56.326;43.882;2022-12-07T09:32:16;15.63;;;6.95;;
70301;SDS011;57706;56.326;43.882;2022-12-07T09:34:42;14.15;;;7.13;;
70301;SDS011;57706;56.326;43.882;2022-12-07T09:37:08;22.50;;;9.23;;
70301;SDS011;57706;56.326;43.882;2022-12-07T09:39:34;15.65;;;7.28;;
70301;SDS011;57706;56.326;43.882;2022-12-07T09:42:00;18.95;;;8.32;;
70301;SDS011;57706;56.326;43.882;2022-12-07T09:44:29;19.13;;;8.25;;
70301;SDS011;57706;56.326;43.882;2022-12-07T09:46:55;16.00;;;7.15;;
70301;SDS011;57706;56.326;43.882;2022-12-07T09:49:23;16.58;;;7.38;;
70301;SDS011;57706;56.326;43.882;2022-12-07T09:52:02;17.45;;;7.38;;
70301;SDS011;57706;56.326;43.882;2022-12-07T09:54:39;17.77;;;6.85;;
70301;SDS011;57706;56.326;43.882;2022-12-07T09:57:30;18.08;;;8.25;;
70301;SDS011;57706;56.326;43.882;2022-12-07T10:00:01;17.85;;;7.88;;
70301;SDS011;57706;56.326;43.882;2022-12-07T10:02:40;17.48;;;6.90;;
70301;SDS011;57706;56.326;43.882;2022-12-07T10:05:34;13.43;;;6.13;;
70301;SDS011;57706;56.326;43.882;2022-12-07T10:08:04;17.02;;;6.45;;
70301;SDS011;57706;56.326;43.882;2022-12-07T10:10:31;11.50;;;5.72;;
70301;SDS011;57706;56.326;43.882;2022-12-07T10:13:02;14.98;;;7.63;;
70301;SDS011;57706;56.326;43.882;2022-12-07T10:18:25;14.52;;;7.60;;
70301;SDS011;57706;56.326;43.882;2022-12-07T10:26:30;13.55;;;7.28;;
70301;SDS011;57706;56.326;43.882;2022-12-07T10:28:58;12.63;;;6.47;;
70301;SDS011;57706;56.326;43.882;2022-12-07T10:31:27;13.18;;;7.55;;
70301;SDS011;57706;56.326;43.882;2022-12-07T10:33:54;15.13;;;7.57;;
70301;SDS011;57706;56.326;43.882;2022-12-07T10:44:27;12.02;;;6.00;;
70301;SDS011;57706;56.326;43.882;2022-12-07T10:53:39;12.30;;;6.68;;
70301;SDS011;57706;56.326;43.882;2022-12-07T11:01:33;17.65;;;7.68;;
70301;SDS011;57706;56.326;43.882;2022-12-07T11:09:39;12.52;;;6.82;;
70301;SDS011;57706;56.326;43.882;2022-12-07T11:12:47;11.40;;;5.97;;
70301;SDS011;57706;56.326;43.882;2022-12-07T11:24:17;12.80;;;5.68;;
70301;SDS011;57706;56.326;43.882;2022-12-07T11:37:21;9.70;;;4.95;;
70301;SDS011;57706;56.326;43.882;2022-12-07T11:39:54;16.75;;;6.72;;
70301;SDS011;57706;56.326;43.882;2022-12-07T11:42:29;14.82;;;5.85;;
70301;SDS011;57706;56.326;43.882;2022-12-07T11:45:23;19.27;;;7.30;;
70301;SDS011;57706;56.326;43.882;2022-12-07T11:58:22;9.77;;;4.05;;
70301;SDS011;57706;56.326;43.882;2022-12-07T12:03:58;12.45;;;5.30;;
70301;SDS011;57706;56.326;43.882;2022-12-07T12:06:32;12.20;;;5.78;;
70301;SDS011;57706;56.326;43.882;2022-12-07T12:22:34;22.88;;;8.25;;
70301;SDS011;57706;56.326;43.882;2022-12-07T12:25:23;20.63;;;8.68;;
70301;SDS011;57706;56.326;43.882;2022-12-07T12:27:54;26.73;;;9.98;;
70301;SDS011;57706;56.326;43.882;2022-12-07T12:30:34;23.60;;;9.25;;
70301;SDS011;57706;56.326;43.882;2022-12-07T12:33:26;26.10;;;9.45;;
70301;SDS011;57706;56.326;43.882;2022-12-07T12:44:01;22.52;;;7.45;;
70301;SDS011;57706;56.326;43.882;2022-12-07T12:48:55;27.63;;;10.00;;
70301;SDS011;57706;56.326;43.882;2022-12-07T12:51:40;25.00;;;9.82;;
70301;SDS011;57706;56.326;43.882;2022-12-07T12:54:19;30.35;;;8.85;;
70301;SDS011;57706;56.326;43.882;2022-12-07T12:59:23;27.20;;;9.18;;
70301;SDS011;57706;56.326;43.882;2022-12-07T13:04:27;19.25;;;8.48;;
70301;SDS011;57706;56.326;43.882;2022-12-07T13:06:56;22.55;;;8.90;;
70301;SDS011;57706;56.326;43.882;2022-12-07T13:09:29;27.67;;;10.23;;
70301;SDS011;57706;56.326;43.882;2022-12-07T13:12:00;26.40;;;10.00;;
70301;SDS011;57706;56.326;43.882;2022-12-07T13:24:57;22.65;;;10.45;;
70301;SDS011;57706;56.326;43.882;2022-12-07T13:27:26;19.60;;;9.25;;
70301;SDS011;57706;56.326;43.882;2022-12-07T13:29:52;11.23;;;5.38;;
70301;SDS011;57706;56.326;43.882;2022-12-07T13:32:28;17.95;;;7.65;;
70301;SDS011;57706;56.326;43.882;2022-12-07T13:34:55;23.83;;;9.20;;
70301;SDS011;57706;56.326;43.882;2022-12-07T13:37:27;20.23;;;7.32;;
70301;SDS011;57706;56.326;43.882;2022-12-07T13:40:15;19.88;;;6.15;;
70301;SDS011;57706;56.326;43.882;2022-12-07T13:42:44;15.07;;;6.00;;
70301;SDS011;57706;56.326;43.882;2022-12-07T13:45:43;12.10;;;5.22;;
70301;SDS011;57706;56.326;43.882;2022-12-07T13:48:15;9.50;;;4.65;;
70301;SDS011;57706;56.326;43.882;2022-12-07T13:51:24;17.27;;;6.70;;
70301;SDS011;57706;56.326;43.882;2022-12-07T13:53:53;23.70;;;7.80;;
70301;SDS011;57706;56.326;43.882;2022-12-07T13:56:39;13.88;;;6.43;;
70301;SDS011;57706;56.326;43.882;2022-12-07T13:59:26;14.68;;;5.10;;
70301;SDS011;57706;56.326;43.882;2022-12-07T14:01:52;16.08;;;6.72;;
70301;SDS011;57706;56.326;43.882;2022-12-07T14:09:59;19.45;;;7.13;;
70301;SDS011;57706;56.326;43.882;2022-12-07T14:12:30;19.33;;;7.93;;
70301;SDS011;57706;56.326;43.882;2022-12-07T14:14:57;22.10;;;7.97;;
70301;SDS011;57706;56.326;43.882;2022-12-07T14:17:25;24.17;;;9.38;;
70301;SDS011;57706;56.326;43.882;2022-12-07T14:19:53;23.27;;;8.40;;
70301;SDS011;57706;56.326;43.882;2022-12-07T14:22:30;12.07;;;6.05;;
70301;SDS011;57706;56.326;43.882;2022-12-07T14:25:01;16.55;;;7.18;;
70301;SDS011;57706;56.326;43.882;2022-12-07T14:27:50;14.30;;;5.70;;
70301;SDS011;57706;56.326;43.882;2022-12-07T14:30:39;24.63;;;8.55;;
70301;SDS011;57706;56.326;43.882;2022-12-07T14:33:07;15.43;;;6.68;;
70301;SDS011;57706;56.326;43.882;2022-12-07T14:35:34;22.17;;;9.00;;
70301;SDS011;57706;56.326;43.882;2022-12-07T14:38:05;23.90;;;7.13;;
70301;SDS011;57706;56.326;43.882;2022-12-07T14:40:31;17.13;;;7.57;;
70301;SDS011;57706;56.326;43.882;2022-12-07T14:43:01;22.67;;;7.35;;
70301;SDS011;57706;56.326;43.882;2022-12-07T14:45:30;20.85;;;7.90;;
70301;SDS011;57706;56.326;43.882;2022-12-07T14:47:56;17.85;;;6.65;;
70301;SDS011;57706;56.326;43.882;2022-12-07T14:50:22;17.40;;;6.95;;
70301;SDS011;57706;56.326;43.882;2022-12-07T14:52:54;19.58;;;8.00;;
70301;SDS011;57706;56.326;43.882;2022-12-07T14:55:27;23.85;;;9.15;;
70301;SDS011;57706;56.326;43.882;2022-12-07T14:57:54;20.83;;;8.40;;
70301;SDS011;57706;56.326;43.882;2022-12-07T15:00:22;19.63;;;8.15;;
70301;SDS011;57706;56.326;43.882;2022-12-07T15:02:50;25.83;;;9.07;;
70301;SDS011;57706;56.326;43.882;2022-12-07T15:05:16;19.58;;;7.82;;
70301;SDS011;57706;56.326;43.882;2022-12-07T15:07:43;22.20;;;7.75;;
70301;SDS011;57706;56.326;43.882;2022-12-07T15:10:21;19.33;;;8.00;;
70301;SDS011;57706;56.326;43.882;2022-12-07T15:12:49;15.85;;;7.75;;
70301;SDS011;57706;56.326;43.882;2022-12-07T15:15:16;22.05;;;7.97;;
70301;SDS011;57706;56.326;43.882;2022-12-07T15:17:42;20.45;;;6.45;;
70301;SDS011;57706;56.326;43.882;2022-12-07T15:20:12;14.32;;;5.93;;
70301;SDS011;57706;56.326;43.882;2022-12-07T15:22:39;11.18;;;5.22;;
70301;SDS011;57706;56.326;43.882;2022-12-07T15:25:05;12.70;;;5.60;;
70301;SDS011;57706;56.326;43.882;2022-12-07T15:27:31;11.73;;;5.25;;
70301;SDS011;57706;56.326;43.882;2022-12-07T15:29:57;12.05;;;5.35;;
70301;SDS011;57706;56.326;43.882;2022-12-07T15:32:23;15.88;;;5.85;;
70301;SDS011;57706;56.326;43.882;2022-12-07T15:37:15;11.38;;;5.65;;
70301;SDS011;57706;56.326;43.882;2022-12-07T15:39:41;9.60;;;4.55;;
70301;SDS011;57706;56.326;43.882;2022-12-07T15:42:07;15.07;;;5.60;;
70301;SDS011;57706;56.326;43.882;2022-12-07T15:47:17;11.20;;;4.95;;
70301;SDS011;57706;56.326;43.882;2022-12-07T15:49:43;12.55;;;6.70;;
70301;SDS011;57706;56.326;43.882;2022-12-07T15:52:09;14.93;;;5.80;;
70301;SDS011;57706;56.326;43.882;2022-12-07T15:54:35;12.73;;;5.93;;
70301;SDS011;57706;56.326;43.882;2022-12-07T15:57:01;14.40;;;5.60;;
70301;SDS011;57706;56.326;43.882;2022-12-07T15:59:27;13.30;;;5.75;;
70301;SDS011;57706;56.326;43.882;2022-12-07T16:04:19;9.50;;;4.35;;
70301;SDS011;57706;56.326;43.882;2022-12-07T16:06:45;16.33;;;5.15;;
70301;SDS011;57706;56.326;43.882;2022-12-07T16:11:37;8.48;;;3.60;;
70301;SDS011;57706;56.326;43.882;2022-12-07T16:14:03;16.00;;;6.80;;
70301;SDS011;57706;56.326;43.882;2022-12-07T16:16:28;16.35;;;7.68;;
70301;SDS011;57706;56.326;43.882;2022-12-07T16:18:54;18.77;;;7.65;;
70301;SDS011;57706;56.326;43.882;2022-12-07T16:21:20;14.43;;;4.90;;
70301;SDS011;57706;56.326;43.882;2022-12-07T16:23:46;14.15;;;6.25;;
70301;SDS011;57706;56.326;43.882;2022-12-07T16:26:13;15.55;;;5.55;;
70301;SDS011;57706;56.326;43.882;2022-12-07T16:28:41;11.82;;;4.97;;
70301;SDS011;57706;56.326;43.882;2022-12-07T16:31:09;12.88;;;5.22;;
70301;SDS011;57706;56.326;43.882;2022-12-07T16:33:38;11.02;;;5.45;;
70301;SDS011;57706;56.326;43.882;2022-12-07T16:36:05;12.48;;;5.97;;
70301;SDS011;57706;56.326;43.882;2022-12-07T16:38:32;18.52;;;8.18;;
70301;SDS011;57706;56.326;43.882;2022-12-07T16:40:59;16.63;;;6.22;;
70301;SDS011;57706;56.326;43.882;2022-12-07T16:43:24;12.57;;;5.40;;
70301;SDS011;57706;56.326;43.882;2022-12-07T16:45:50;18.98;;;6.25;;
70301;SDS011;57706;56.326;43.882;2022-12-07T16:50:43;16.13;;;6.45;;
70301;SDS011;57706;56.326;43.882;2022-12-07T16:53:10;16.90;;;6.10;;
70301;SDS011;57706;56.326;43.882;2022-12-07T16:55:40;18.83;;;7.43;;
70301;SDS011;57706;56.326;43.882;2022-12-07T16:58:08;11.18;;;5.88;;
70301;SDS011;57706;56.326;43.882;2022-12-07T17:00:34;18.45;;;7.55;;
70301;SDS011;57706;56.326;43.882;2022-12-07T17:03:00;11.30;;;5.53;;
70301;SDS011;57706;56.326;43.882;2022-12-07T17:05:26;18.60;;;7.35;;
70301;SDS011;57706;56.326;43.882;2022-12-07T17:07:53;16.45;;;7.57;;
70301;SDS011;57706;56.326;43.882;2022-12-07T17:10:20;21.45;;;6.63;;
70301;SDS011;57706;56.326;43.882;2022-12-07T17:12:47;23.00;;;8.20;;
70301;SDS011;57706;56.326;43.882;2022-12-07T17:15:13;13.98;;;6.20;;
70301;SDS011;57706;56.326;43.882;2022-12-07T17:17:43;20.40;;;7.65;;
70301;SDS011;57706;56.326;43.882;2022-12-07T17:20:16;10.88;;;5.45;;
70301;SDS011;57706;56.326;43.882;2022-12-07T17:22:42;18.08;;;7.53;;
70301;SDS011;57706;56.326;43.882;2022-12-07T17:25:08;21.17;;;6.85;;
70301;SDS011;57706;56.326;43.882;2022-12-07T17:27:35;18.63;;;5.47;;
70301;SDS011;57706;56.326;43.882;2022-12-07T17:30:01;16.23;;;5.00;;
70301;SDS011;57706;56.326;43.882;2022-12-07T17:32:30;14.65;;;6.13;;
70301;SDS011;57706;56.326;43.882;2022-12-07T17:34:56;16.60;;;8.00;;
70301;SDS011;57706;56.326;43.882;2022-12-07T17:37:22;13.88;;;6.85;;
70301;SDS011;57706;56.326;43.882;2022-12-07T17:39:48;15.13;;;6.50;;
70301;SDS011;57706;56.326;43.882;2022-12-07T17:42:14;19.27;;;7.40;;
70301;SDS011;57706;56.326;43.882;2022-12-07T17:44:59;8.85;;;4.63;;
70301;SDS011;57706;56.326;43.882;2022-12-07T17:47:24;21.05;;;7.65;;
70301;SDS011;57706;56.326;43.882;2022-12-07T17:49:50;16.73;;;7.07;;
70301;SDS011;57706;56.326;43.882;2022-12-07T17:52:16;11.75;;;5.10;;
70301;SDS011;57706;56.326;43.882;2022-12-07T17:55:01;16.65;;;5.45;;
70301;SDS011;57706;56.326;43.882;2022-12-07T17:57:29;19.35;;;7.45;;